sensor_id;sensor_type;location;lat;lon;timestamp;pressure;altitude;pressure_sealevel;temperature;humidity
5595;BME280;1003;48.002;7.788;2022-07-24T00:01:29;99182.56;;;20.45;100.00
5595;BME280;1003;48.002;7.788;2022-07-24T00:03:56;99191.19;;;20.43;100.00
5595;BME280;1003;48.002;7.788;2022-07-24T00:06:24;99196.38;;;20.41;100.00
5595;BME280;1003;48.002;7.788;2022-07-24T00:08:51;99195.63;;;20.39;100.00
5595;BME280;1003;48.002;7.788;2022-07-24T00:11:20;99188.13;;;20.36;100.00
5595;BME280;1003;48.002;7.788;2022-07-24T00:13:47;99186.59;;;20.32;100.00
5595;BME280;1003;48.002;7.788;2022-07-24T00:16:14;99183.47;;;20.27;100.00
5595;BME280;1003;48.002;7.788;2022-07-24T00:18:42;99185.28;;;20.25;100.00
5595;BME280;1003;48.002;7.788;2022-07-24T00:21:09;99182.81;;;20.24;100.00
5595;BME280;1003;48.002;7.788;2022-07-24T00:23:36;99183.25;;;20.14;100.00
5595;BME280;1003;48.002;7.788;2022-07-24T00:26:03;99184.69;;;20.03;100.00
5595;BME280;1003;48.002;7.788;2022-07-24T00:28:32;99184.22;;;19.95;100.00
5595;BME280;1003;48.002;7.788;2022-07-24T00:31:01;99183.81;;;19.85;100.00
5595;BME280;1003;48.002;7.788;2022-07-24T00:33:28;99184.94;;;19.79;100.00
5595;BME280;1003;48.002;7.788;2022-07-24T00:35:55;99178.50;;;19.72;100.00
5595;BME280;1003;48.002;7.788;2022-07-24T00:38:23;99179.63;;;19.66;100.00
5595;BME280;1003;48.002;7.788;2022-07-24T00:40:50;99179.75;;;19.63;100.00
5595;BME280;1003;48.002;7.788;2022-07-24T00:43:17;99184.84;;;19.63;100.00
5595;BME280;1003;48.002;7.788;2022-07-24T00:45:46;99187.41;;;19.63;100.00
5595;BME280;1003;48.002;7.788;2022-07-24T00:48:15;99179.63;;;19.66;100.00
5595;BME280;1003;48.002;7.788;2022-07-24T00:50:43;99178.09;;;19.62;100.00
5595;BME280;1003;48.002;7.788;2022-07-24T00:53:11;99190.19;;;19.57;100.00
5595;BME280;1003;48.002;7.788;2022-07-24T00:55:38;99185.56;;;19.48;100.00
5595;BME280;1003;48.002;7.788;2022-07-24T00:58:06;99184.16;;;19.41;100.00
5595;BME280;1003;48.002;7.788;2022-07-24T01:00:34;99180.19;;;19.35;100.00
5595;BME280;1003;48.002;7.788;2022-07-24T01:03:02;99175.84;;;19.37;100.00
5595;BME280;1003;48.002;7.788;2022-07-24T01:05:29;99175.16;;;19.34;100.00
5595;BME280;1003;48.002;7.788;2022-07-24T01:07:57;99173.66;;;19.30;100.00
5595;BME280;1003;48.002;7.788;2022-07-24T01:10:24;99173.94;;;19.24;100.00
5595;BME280;1003;48.002;7.788;2022-07-24T01:12:51;99177.47;;;19.21;100.00
5595;BME280;1003;48.002;7.788;2022-07-24T01:15:19;99168.91;;;19.22;100.00
5595;BME280;1003;48.002;7.788;2022-07-24T01:17:46;99171.09;;;19.30;100.00
5595;BME280;1003;48.002;7.788;2022-07-24T01:20:14;99178.19;;;19.23;100.00
5595;BME280;1003;48.002;7.788;2022-07-24T01:22:42;99178.81;;;19.09;100.00
5595;BME280;1003;48.002;7.788;2022-07-24T01:25:10;99169.06;;;19.00;100.00
5595;BME280;1003;48.002;7.788;2022-07-24T01:27:37;99166.00;;;18.92;100.00
5595;BME280;1003;48.002;7.788;2022-07-24T01:30:06;99172.00;;;18.91;100.00
5595;BME280;1003;48.002;7.788;2022-07-24T01:32:33;99172.91;;;18.90;100.00
5595;BME280;1003;48.002;7.788;2022-07-24T01:35:00;99164.38;;;18.91;100.00
5595;BME280;1003;48.002;7.788;2022-07-24T01:37:28;99164.28;;;18.93;100.00
5595;BME280;1003;48.002;7.788;2022-07-24T01:39:56;99164.16;;;18.96;100.00
5595;BME280;1003;48.002;7.788;2022-07-24T01:42:23;99164.84;;;18.99;100.00
5595;BME280;1003;48.002;7.788;2022-07-24T01:44:51;99164.59;;;19.05;100.00
5595;BME280;1003;48.002;7.788;2022-07-24T01:47:18;99166.06;;;19.09;100.00
5595;BME280;1003;48.002;7.788;2022-07-24T01:49:45;99151.47;;;19.13;100.00
5595;BME280;1003;48.002;7.788;2022-07-24T01:52:12;99155.59;;;19.15;100.00
5595;BME280;1003;48.002;7.788;2022-07-24T01:54:39;99155.34;;;19.22;100.00
5595;BME280;1003;48.002;7.788;2022-07-24T01:57:08;99154.16;;;19.29;100.00
5595;BME280;1003;48.002;7.788;2022-07-24T01:59:35;99150.88;;;19.27;100.00
5595;BME280;1003;48.002;7.788;2022-07-24T02:02:03;99161.59;;;19.33;100.00
5595;BME280;1003;48.002;7.788;2022-07-24T02:04:30;99154.59;;;19.37;100.00
5595;BME280;1003;48.002;7.788;2022-07-24T02:06:57;99160.59;;;19.36;100.00
5595;BME280;1003;48.002;7.788;2022-07-24T02:09:24;99153.13;;;19.33;100.00
5595;BME280;1003;48.002;7.788;2022-07-24T02:11:52;99154.69;;;19.35;100.00
5595;BME280;1003;48.002;7.788;2022-07-24T02:14:21;99143.59;;;19.36;100.00
5595;BME280;1003;48.002;7.788;2022-07-24T02:16:48;99154.47;;;19.40;100.00
5595;BME280;1003;48.002;7.788;2022-07-24T02:19:15;99143.47;;;19.39;100.00
5595;BME280;1003;48.002;7.788;2022-07-24T02:21:43;99153.44;;;19.44;100.00
5595;BME280;1003;48.002;7.788;2022-07-24T02:24:10;99147.56;;;19.42;100.00
5595;BME280;1003;48.002;7.788;2022-07-24T02:26:37;99146.84;;;19.40;100.00
5595;BME280;1003;48.002;7.788;2022-07-24T02:29:04;99156.22;;;19.39;100.00
5595;BME280;1003;48.002;7.788;2022-07-24T02:31:32;99155.50;;;19.36;100.00
5595;BME280;1003;48.002;7.788;2022-07-24T02:33:59;99159.88;;;19.34;100.00
5595;BME280;1003;48.002;7.788;2022-07-24T02:36:27;99159.38;;;19.26;100.00
5595;BME280;1003;48.002;7.788;2022-07-24T02:38:54;99163.13;;;19.19;100.00
5595;BME280;1003;48.002;7.788;2022-07-24T02:41:21;99162.69;;;19.09;100.00
5595;BME280;1003;48.002;7.788;2022-07-24T02:43:48;99164.16;;;18.96;100.00
5595;BME280;1003;48.002;7.788;2022-07-24T02:46:15;99167.03;;;18.88;100.00
5595;BME280;1003;48.002;7.788;2022-07-24T02:48:43;99176.59;;;18.83;100.00
5595;BME280;1003;48.002;7.788;2022-07-24T02:51:11;99183.69;;;18.76;100.00
5595;BME280;1003;48.002;7.788;2022-07-24T02:53:38;99174.66;;;18.69;100.00
5595;BME280;1003;48.002;7.788;2022-07-24T02:56:05;99173.38;;;18.59;100.00
5595;BME280;1003;48.002;7.788;2022-07-24T02:58:33;99177.19;;;18.49;100.00
5595;BME280;1003;48.002;7.788;2022-07-24T03:01:00;99175.84;;;18.40;100.00
5595;BME280;1003;48.002;7.788;2022-07-24T03:03:27;99173.56;;;18.34;100.00
5595;BME280;1003;48.002;7.788;2022-07-24T03:05:56;99171.56;;;18.22;100.00
5595;BME280;1003;48.002;7.788;2022-07-24T03:08:23;99171.00;;;18.15;100.00
5595;BME280;1003;48.002;7.788;2022-07-24T03:10:50;99172.97;;;18.08;100.00
5595;BME280;1003;48.002;7.788;2022-07-24T03:13:17;99167.22;;;18.03;100.00
5595;BME280;1003;48.002;7.788;2022-07-24T03:15:44;99164.94;;;17.97;100.00
5595;BME280;1003;48.002;7.788;2022-07-24T03:18:11;99157.53;;;17.91;100.00
5595;BME280;1003;48.002;7.788;2022-07-24T03:20:38;99162.84;;;17.87;100.00
5595;BME280;1003;48.002;7.788;2022-07-24T03:23:07;99160.47;;;17.82;100.00
5595;BME280;1003;48.002;7.788;2022-07-24T03:25:34;99156.38;;;17.78;100.00
5595;BME280;1003;48.002;7.788;2022-07-24T03:28:01;99160.00;;;17.72;100.00
5595;BME280;1003;48.002;7.788;2022-07-24T03:30:28;99158.34;;;17.70;100.00
5595;BME280;1003;48.002;7.788;2022-07-24T03:32:55;99162.69;;;17.68;100.00
5595;BME280;1003;48.002;7.788;2022-07-24T03:35:22;99158.69;;;17.62;100.00
5595;BME280;1003;48.002;7.788;2022-07-24T03:37:49;99161.09;;;17.65;100.00
5595;BME280;1003;48.002;7.788;2022-07-24T03:40:17;99151.75;;;17.66;100.00
5595;BME280;1003;48.002;7.788;2022-07-24T03:42:44;99155.31;;;17.62;100.00
5595;BME280;1003;48.002;7.788;2022-07-24T03:45:12;99152.03;;;17.58;100.00
5595;BME280;1003;48.002;7.788;2022-07-24T03:47:39;99156.38;;;17.56;100.00
5595;BME280;1003;48.002;7.788;2022-07-24T03:50:07;99157.28;;;17.55;100.00
5595;BME280;1003;48.002;7.788;2022-07-24T03:52:34;99156.19;;;17.61;100.00
5595;BME280;1003;48.002;7.788;2022-07-24T03:55:01;99156.78;;;17.67;100.00
5595;BME280;1003;48.002;7.788;2022-07-24T03:57:30;99165.84;;;17.74;100.00
5595;BME280;1003;48.002;7.788;2022-07-24T03:59:57;99172.34;;;17.81;100.00
5595;BME280;1003;48.002;7.788;2022-07-24T04:02:24;99171.31;;;17.86;100.00
5595;BME280;1003;48.002;7.788;2022-07-24T04:04:51;99179.72;;;17.88;100.00
5595;BME280;1003;48.002;7.788;2022-07-24T04:07:18;99177.13;;;17.89;100.00
5595;BME280;1003;48.002;7.788;2022-07-24T04:09:45;99180.38;;;17.93;100.00
5595;BME280;1003;48.002;7.788;2022-07-24T04:12:12;99183.56;;;17.98;100.00
5595;BME280;1003;48.002;7.788;2022-07-24T04:14:41;99186.75;;;18.03;100.00
5595;BME280;1003;48.002;7.788;2022-07-24T04:17:08;99185.72;;;18.07;100.00
5595;BME280;1003;48.002;7.788;2022-07-24T04:19:35;99195.72;;;18.12;100.00
5595;BME280;1003;48.002;7.788;2022-07-24T04:22:02;99192.91;;;18.18;100.00
5595;BME280;1003;48.002;7.788;2022-07-24T04:24:29;99186.56;;;18.28;100.00
5595;BME280;1003;48.002;7.788;2022-07-24T04:26:56;99194.75;;;18.34;100.00
5595;BME280;1003;48.002;7.788;2022-07-24T04:29:24;99190.25;;;18.41;100.00
5595;BME280;1003;48.002;7.788;2022-07-24T04:31:52;99190.91;;;18.46;100.00
5595;BME280;1003;48.002;7.788;2022-07-24T04:34:19;99188.66;;;18.39;100.00
5595;BME280;1003;48.002;7.788;2022-07-24T04:36:46;99189.00;;;18.31;100.00
5595;BME280;1003;48.002;7.788;2022-07-24T04:39:13;99190.75;;;18.29;100.00
5595;BME280;1003;48.002;7.788;2022-07-24T04:41:41;99195.00;;;18.28;100.00
5595;BME280;1003;48.002;7.788;2022-07-24T04:44:08;99189.56;;;18.38;100.00
5595;BME280;1003;48.002;7.788;2022-07-24T04:46:35;99201.72;;;18.51;100.00
5595;BME280;1003;48.002;7.788;2022-07-24T04:49:03;99201.03;;;18.68;100.00
5595;BME280;1003;48.002;7.788;2022-07-24T04:51:31;99205.38;;;18.85;100.00
5595;BME280;1003;48.002;7.788;2022-07-24T04:53:58;99204.72;;;19.00;100.00
5595;BME280;1003;48.002;7.788;2022-07-24T04:56:25;99199.00;;;19.14;100.00
5595;BME280;1003;48.002;7.788;2022-07-24T04:58:56;99197.59;;;19.26;100.00
5595;BME280;1003;48.002;7.788;2022-07-24T05:01:23;99206.56;;;19.34;100.00
5595;BME280;1003;48.002;7.788;2022-07-24T05:03:50;99203.84;;;19.56;100.00
5595;BME280;1003;48.002;7.788;2022-07-24T05:06:18;99211.16;;;20.00;100.00
5595;BME280;1003;48.002;7.788;2022-07-24T05:08:45;99206.94;;;21.17;100.00
5595;BME280;1003;48.002;7.788;2022-07-24T05:11:12;99211.56;;;22.93;100.00
5595;BME280;1003;48.002;7.788;2022-07-24T05:13:40;99207.72;;;24.48;100.00
5595;BME280;1003;48.002;7.788;2022-07-24T05:16:07;99216.47;;;26.05;83.47
5595;BME280;1003;48.002;7.788;2022-07-24T05:18:34;99223.63;;;27.15;67.68
5595;BME280;1003;48.002;7.788;2022-07-24T05:21:02;99228.06;;;27.79;60.68
5595;BME280;1003;48.002;7.788;2022-07-24T05:23:31;99223.34;;;28.46;54.54
5595;BME280;1003;48.002;7.788;2022-07-24T05:25:58;99225.09;;;28.36;53.19
5595;BME280;1003;48.002;7.788;2022-07-24T05:28:25;99235.94;;;29.22;52.87
5595;BME280;1003;48.002;7.788;2022-07-24T05:30:52;99233.13;;;29.35;53.22
5595;BME280;1003;48.002;7.788;2022-07-24T05:33:19;99228.38;;;28.99;52.77
5595;BME280;1003;48.002;7.788;2022-07-24T05:35:46;99235.81;;;30.49;48.62
5595;BME280;1003;48.002;7.788;2022-07-24T05:38:13;99239.78;;;31.46;46.50
5595;BME280;1003;48.002;7.788;2022-07-24T05:40:41;99235.47;;;31.54;46.89
5595;BME280;1003;48.002;7.788;2022-07-24T05:43:08;99236.59;;;31.87;46.93
5595;BME280;1003;48.002;7.788;2022-07-24T05:45:36;99243.09;;;32.09;45.88
5595;BME280;1003;48.002;7.788;2022-07-24T05:48:03;99239.13;;;32.41;45.55
5595;BME280;1003;48.002;7.788;2022-07-24T05:50:31;99237.22;;;32.51;45.22
5595;BME280;1003;48.002;7.788;2022-07-24T05:52:58;99241.38;;;32.70;44.44
5595;BME280;1003;48.002;7.788;2022-07-24T05:55:25;99239.94;;;33.18;43.89
5595;BME280;1003;48.002;7.788;2022-07-24T05:57:55;99241.34;;;33.79;41.81
5595;BME280;1003;48.002;7.788;2022-07-24T06:00:22;99240.53;;;33.79;43.61
5595;BME280;1003;48.002;7.788;2022-07-24T06:02:49;99240.88;;;33.92;41.79
5595;BME280;1003;48.002;7.788;2022-07-24T06:05:16;99240.38;;;34.45;40.31
5595;BME280;1003;48.002;7.788;2022-07-24T06:07:45;99246.22;;;34.47;39.73
5595;BME280;1003;48.002;7.788;2022-07-24T06:10:12;99248.09;;;34.78;38.23
5595;BME280;1003;48.002;7.788;2022-07-24T06:12:39;99240.50;;;34.60;39.05
5595;BME280;1003;48.002;7.788;2022-07-24T06:15:09;99244.47;;;34.24;38.65
5595;BME280;1003;48.002;7.788;2022-07-24T06:17:36;99233.81;;;34.33;38.78
5595;BME280;1003;48.002;7.788;2022-07-24T06:20:04;99237.59;;;34.39;38.29
5595;BME280;1003;48.002;7.788;2022-07-24T06:22:33;99235.22;;;34.68;39.88
5595;BME280;1003;48.002;7.788;2022-07-24T06:25:00;99238.06;;;35.29;38.09
5595;BME280;1003;48.002;7.788;2022-07-24T06:27:27;99242.03;;;33.81;41.01
5595;BME280;1003;48.002;7.788;2022-07-24T06:29:54;99227.53;;;33.71;39.30
5595;BME280;1003;48.002;7.788;2022-07-24T06:32:22;99228.00;;;33.82;39.54
5595;BME280;1003;48.002;7.788;2022-07-24T06:34:50;99231.78;;;35.15;37.88
5595;BME280;1003;48.002;7.788;2022-07-24T06:37:17;99230.91;;;35.23;35.74
5595;BME280;1003;48.002;7.788;2022-07-24T06:39:44;99226.44;;;35.09;36.93
5595;BME280;1003;48.002;7.788;2022-07-24T06:42:11;99226.03;;;35.43;37.35
5595;BME280;1003;48.002;7.788;2022-07-24T06:44:38;99230.63;;;36.24;33.36
5595;BME280;1003;48.002;7.788;2022-07-24T06:47:05;99227.44;;;34.91;33.78
5595;BME280;1003;48.002;7.788;2022-07-24T06:49:34;99224.84;;;34.91;36.29
5595;BME280;1003;48.002;7.788;2022-07-24T06:52:01;99224.28;;;35.35;35.93
5595;BME280;1003;48.002;7.788;2022-07-24T06:54:28;99231.41;;;34.15;37.62
5595;BME280;1003;48.002;7.788;2022-07-24T06:56:55;99231.63;;;33.06;40.48
5595;BME280;1003;48.002;7.788;2022-07-24T06:59:22;99229.97;;;32.71;41.81
5595;BME280;1003;48.002;7.788;2022-07-24T07:01:49;99225.22;;;33.92;40.08
5595;BME280;1003;48.002;7.788;2022-07-24T07:04:16;99225.72;;;34.84;37.88
5595;BME280;1003;48.002;7.788;2022-07-24T07:06:44;99224.22;;;34.50;36.50
5595;BME280;1003;48.002;7.788;2022-07-24T07:09:12;99215.63;;;34.01;39.56
5595;BME280;1003;48.002;7.788;2022-07-24T07:11:39;99223.59;;;33.50;41.26
5595;BME280;1003;48.002;7.788;2022-07-24T07:14:06;99222.53;;;34.57;36.16
5595;BME280;1003;48.002;7.788;2022-07-24T07:16:33;99224.22;;;34.34;38.29
5595;BME280;1003;48.002;7.788;2022-07-24T07:19:00;99224.22;;;34.34;37.60
5595;BME280;1003;48.002;7.788;2022-07-24T07:21:28;99221.97;;;33.82;37.92
5595;BME280;1003;48.002;7.788;2022-07-24T07:23:56;99221.50;;;33.86;37.32
5595;BME280;1003;48.002;7.788;2022-07-24T07:26:23;99222.88;;;33.24;37.48
5595;BME280;1003;48.002;7.788;2022-07-24T07:28:50;99217.91;;;32.96;39.37
5595;BME280;1003;48.002;7.788;2022-07-24T07:31:18;99222.94;;;33.48;37.45
5595;BME280;1003;48.002;7.788;2022-07-24T07:33:45;99218.53;;;32.90;41.06
5595;BME280;1003;48.002;7.788;2022-07-24T07:36:12;99218.94;;;32.77;42.73
5595;BME280;1003;48.002;7.788;2022-07-24T07:38:39;99215.19;;;33.06;39.55
5595;BME280;1003;48.002;7.788;2022-07-24T07:41:08;99211.53;;;33.41;38.82
5595;BME280;1003;48.002;7.788;2022-07-24T07:43:36;99210.91;;;32.97;38.04
5595;BME280;1003;48.002;7.788;2022-07-24T07:46:03;99213.53;;;32.71;39.43
5595;BME280;1003;48.002;7.788;2022-07-24T07:48:30;99207.53;;;33.12;37.81
5595;BME280;1003;48.002;7.788;2022-07-24T07:50:58;99214.28;;;32.55;38.08
5595;BME280;1003;48.002;7.788;2022-07-24T07:53:25;99203.91;;;32.03;38.95
5595;BME280;1003;48.002;7.788;2022-07-24T07:55:52;99214.91;;;31.97;39.69
5595;BME280;1003;48.002;7.788;2022-07-24T07:58:21;99218.69;;;31.84;39.64
5595;BME280;1003;48.002;7.788;2022-07-24T08:00:48;99212.22;;;31.53;40.52
5595;BME280;1003;48.002;7.788;2022-07-24T08:03:15;99214.38;;;31.57;41.75
5595;BME280;1003;48.002;7.788;2022-07-24T08:05:42;99213.78;;;31.99;40.64
5595;BME280;1003;48.002;7.788;2022-07-24T08:08:10;99212.44;;;32.21;39.44
5595;BME280;1003;48.002;7.788;2022-07-24T08:10:37;99211.81;;;32.01;41.21
5595;BME280;1003;48.002;7.788;2022-07-24T08:13:05;99207.78;;;31.45;41.48
5595;BME280;1003;48.002;7.788;2022-07-24T08:15:36;99208.72;;;31.62;40.75
5595;BME280;1003;48.002;7.788;2022-07-24T08:18:03;99207.47;;;30.75;43.87
5595;BME280;1003;48.002;7.788;2022-07-24T08:20:31;99201.75;;;31.27;45.19
5595;BME280;1003;48.002;7.788;2022-07-24T08:22:58;99212.16;;;31.62;40.96
5595;BME280;1003;48.002;7.788;2022-07-24T08:25:26;99202.63;;;30.90;43.22
5595;BME280;1003;48.002;7.788;2022-07-24T08:27:53;99203.81;;;31.23;41.99
5595;BME280;1003;48.002;7.788;2022-07-24T08:30:20;99207.56;;;31.39;43.75
5595;BME280;1003;48.002;7.788;2022-07-24T08:32:51;99202.06;;;31.59;42.70
5595;BME280;1003;48.002;7.788;2022-07-24T08:35:18;99203.31;;;31.91;41.14
5595;BME280;1003;48.002;7.788;2022-07-24T08:37:46;99205.09;;;32.17;41.72
5595;BME280;1003;48.002;7.788;2022-07-24T08:40:14;99206.34;;;32.04;39.42
5595;BME280;1003;48.002;7.788;2022-07-24T08:42:42;99213.84;;;31.90;39.88
5595;BME280;1003;48.002;7.788;2022-07-24T08:45:09;99197.97;;;31.39;39.48
5595;BME280;1003;48.002;7.788;2022-07-24T08:47:39;99193.69;;;31.20;41.04
5595;BME280;1003;48.002;7.788;2022-07-24T08:50:09;99196.56;;;30.99;39.73
5595;BME280;1003;48.002;7.788;2022-07-24T08:52:38;99202.25;;;30.38;41.94
5595;BME280;1003;48.002;7.788;2022-07-24T08:55:06;99193.03;;;29.97;43.43
5595;BME280;1003;48.002;7.788;2022-07-24T08:57:34;99195.34;;;30.10;43.72
5595;BME280;1003;48.002;7.788;2022-07-24T09:00:01;99204.28;;;30.44;42.71
5595;BME280;1003;48.002;7.788;2022-07-24T09:02:28;99197.75;;;30.40;41.08
5595;BME280;1003;48.002;7.788;2022-07-24T09:04:59;99198.72;;;30.29;41.70
5595;BME280;1003;48.002;7.788;2022-07-24T09:07:30;99198.06;;;30.08;43.74
5595;BME280;1003;48.002;7.788;2022-07-24T09:10:00;99190.59;;;30.24;42.43
5595;BME280;1003;48.002;7.788;2022-07-24T09:12:32;99194.53;;;30.19;42.39
5595;BME280;1003;48.002;7.788;2022-07-24T09:15:00;99193.88;;;30.17;41.18
5595;BME280;1003;48.002;7.788;2022-07-24T09:17:28;99190.34;;;29.79;43.61
5595;BME280;1003;48.002;7.788;2022-07-24T09:19:58;99193.50;;;29.83;43.63
5595;BME280;1003;48.002;7.788;2022-07-24T09:22:33;99185.81;;;29.81;42.71
5595;BME280;1003;48.002;7.788;2022-07-24T09:25:11;99185.41;;;29.86;41.43
5595;BME280;1003;48.002;7.788;2022-07-24T09:27:45;99177.94;;;29.73;42.13
5595;BME280;1003;48.002;7.788;2022-07-24T09:30:25;99173.97;;;29.88;43.36
5595;BME280;1003;48.002;7.788;2022-07-24T09:32:55;99166.72;;;30.01;43.26
5595;BME280;1003;48.002;7.788;2022-07-24T09:35:29;99174.06;;;30.25;42.71
5595;BME280;1003;48.002;7.788;2022-07-24T09:38:00;99176.91;;;30.32;42.84
5595;BME280;1003;48.002;7.788;2022-07-24T09:40:34;99171.63;;;30.14;42.07
5595;BME280;1003;48.002;7.788;2022-07-24T09:43:22;99167.16;;;29.77;41.89
5595;BME280;1003;48.002;7.788;2022-07-24T09:46:00;99161.03;;;29.69;43.25
5595;BME280;1003;48.002;7.788;2022-07-24T09:48:30;99164.69;;;29.95;43.47
5595;BME280;1003;48.002;7.788;2022-07-24T09:51:01;99164.50;;;30.26;42.59
5595;BME280;1003;48.002;7.788;2022-07-24T09:53:33;99158.78;;;30.13;40.87
5595;BME280;1003;48.002;7.788;2022-07-24T09:56:04;99162.06;;;30.05;41.11
5595;BME280;1003;48.002;7.788;2022-07-24T09:58:34;99149.66;;;30.09;41.79
5595;BME280;1003;48.002;7.788;2022-07-24T10:01:04;99162.22;;;30.03;41.72
5595;BME280;1003;48.002;7.788;2022-07-24T10:03:34;99148.47;;;29.93;42.96
5595;BME280;1003;48.002;7.788;2022-07-24T10:06:06;99148.56;;;30.01;41.60
5595;BME280;1003;48.002;7.788;2022-07-24T10:08:39;99158.94;;;29.92;41.57
5595;BME280;1003;48.002;7.788;2022-07-24T10:11:08;99149.84;;;29.68;42.01
5595;BME280;1003;48.002;7.788;2022-07-24T10:13:36;99151.22;;;29.72;41.89
5595;BME280;1003;48.002;7.788;2022-07-24T10:16:30;99145.31;;;29.80;42.05
5595;BME280;1003;48.002;7.788;2022-07-24T10:19:00;99150.41;;;29.82;41.57
5595;BME280;1003;48.002;7.788;2022-07-24T10:21:30;99146.69;;;29.74;41.72
5595;BME280;1003;48.002;7.788;2022-07-24T10:24:52;99146.03;;;29.82;41.99
5595;BME280;1003;48.002;7.788;2022-07-24T10:27:27;99146.69;;;29.84;41.76
5595;BME280;1003;48.002;7.788;2022-07-24T10:29:57;99142.47;;;29.64;41.58
5595;BME280;1003;48.002;7.788;2022-07-24T10:32:26;99144.66;;;29.68;42.20
5595;BME280;1003;48.002;7.788;2022-07-24T10:35:12;99134.41;;;29.86;42.43
5595;BME280;1003;48.002;7.788;2022-07-24T10:37:54;99135.63;;;29.92;41.69
5595;BME280;1003;48.002;7.788;2022-07-24T10:40:36;99132.22;;;29.91;42.51
5595;BME280;1003;48.002;7.788;2022-07-24T10:43:14;99131.78;;;30.15;40.81
5595;BME280;1003;48.002;7.788;2022-07-24T10:45:44;99128.03;;;30.27;40.29
5595;BME280;1003;48.002;7.788;2022-07-24T10:48:33;99125.69;;;29.87;41.43
5595;BME280;1003;48.002;7.788;2022-07-24T10:51:09;99121.19;;;29.79;42.39
5595;BME280;1003;48.002;7.788;2022-07-24T10:53:54;99127.47;;;29.87;40.81
5595;BME280;1003;48.002;7.788;2022-07-24T10:56:28;99124.34;;;29.83;41.65
5595;BME280;1003;48.002;7.788;2022-07-24T10:59:06;99118.44;;;29.91;42.67
5595;BME280;1003;48.002;7.788;2022-07-24T11:01:38;99114.84;;;30.11;41.47
5595;BME280;1003;48.002;7.788;2022-07-24T11:04:28;99107.72;;;30.23;40.87
5595;BME280;1003;48.002;7.788;2022-07-24T11:07:07;99113.88;;;30.22;40.60
5595;BME280;1003;48.002;7.788;2022-07-24T11:09:55;99109.81;;;30.19;39.81
5595;BME280;1003;48.002;7.788;2022-07-24T11:12:29;99105.31;;;30.12;40.92
5595;BME280;1003;48.002;7.788;2022-07-24T11:15:01;99099.69;;;30.06;40.01
5595;BME280;1003;48.002;7.788;2022-07-24T11:17:45;99098.75;;;30.17;40.76
5595;BME280;1003;48.002;7.788;2022-07-24T11:20:15;99100.34;;;30.28;40.15
5595;BME280;1003;48.002;7.788;2022-07-24T11:22:46;99104.38;;;30.40;40.84
5595;BME280;1003;48.002;7.788;2022-07-24T11:25:18;99093.47;;;30.37;40.95
5595;BME280;1003;48.002;7.788;2022-07-24T11:27:54;99090.25;;;30.25;41.91
5595;BME280;1003;48.002;7.788;2022-07-24T11:30:28;99085.66;;;30.46;41.06
5595;BME280;1003;48.002;7.788;2022-07-24T11:32:56;99080.53;;;30.54;40.16
5595;BME280;1003;48.002;7.788;2022-07-24T11:35:33;99073.38;;;30.66;40.33
5595;BME280;1003;48.002;7.788;2022-07-24T11:38:03;99077.41;;;30.51;39.72
5595;BME280;1003;48.002;7.788;2022-07-24T11:40:32;99067.50;;;30.46;40.84
5595;BME280;1003;48.002;7.788;2022-07-24T11:43:04;99066.28;;;30.68;40.04
5595;BME280;1003;48.002;7.788;2022-07-24T11:45:32;99075.00;;;30.67;40.35
5595;BME280;1003;48.002;7.788;2022-07-24T11:47:59;99070.28;;;30.63;40.24
5595;BME280;1003;48.002;7.788;2022-07-24T11:50:27;99065.50;;;30.58;41.54
5595;BME280;1003;48.002;7.788;2022-07-24T11:52:55;99054.16;;;30.41;41.28
5595;BME280;1003;48.002;7.788;2022-07-24T11:55:23;99058.31;;;30.52;40.67
5595;BME280;1003;48.002;7.788;2022-07-24T11:57:53;99048.59;;;30.54;41.50
5595;BME280;1003;48.002;7.788;2022-07-24T12:00:25;99055.50;;;30.63;41.11
5595;BME280;1003;48.002;7.788;2022-07-24T12:02:55;99042.22;;;30.66;41.47
5595;BME280;1003;48.002;7.788;2022-07-24T12:05:25;99047.03;;;30.61;40.28
5595;BME280;1003;48.002;7.788;2022-07-24T12:07:53;99038.53;;;30.69;40.50
5595;BME280;1003;48.002;7.788;2022-07-24T12:10:22;99043.16;;;30.75;40.60
5595;BME280;1003;48.002;7.788;2022-07-24T12:12:52;99037.81;;;30.94;40.91
5595;BME280;1003;48.002;7.788;2022-07-24T12:15:24;99035.31;;;31.02;40.28
5595;BME280;1003;48.002;7.788;2022-07-24T12:17:59;99029.66;;;31.07;40.85
5595;BME280;1003;48.002;7.788;2022-07-24T12:20:29;99030.31;;;31.09;40.40
5595;BME280;1003;48.002;7.788;2022-07-24T12:22:58;99020.50;;;30.95;40.40
5595;BME280;1003;48.002;7.788;2022-07-24T12:25:26;99019.50;;;31.14;40.01
5595;BME280;1003;48.002;7.788;2022-07-24T12:28:03;99023.03;;;31.30;39.16
5595;BME280;1003;48.002;7.788;2022-07-24T12:30:35;99016.06;;;31.31;39.52
5595;BME280;1003;48.002;7.788;2022-07-24T12:33:05;99014.63;;;31.36;40.32
5595;BME280;1003;48.002;7.788;2022-07-24T12:35:35;99010.88;;;31.31;39.34
5595;BME280;1003;48.002;7.788;2022-07-24T12:38:24;99003.47;;;31.18;39.66
5595;BME280;1003;48.002;7.788;2022-07-24T12:41:01;99001.56;;;31.46;39.29
5595;BME280;1003;48.002;7.788;2022-07-24T12:43:29;98991.94;;;31.65;40.05
5595;BME280;1003;48.002;7.788;2022-07-24T12:46:07;98993.28;;;31.77;39.30
5595;BME280;1003;48.002;7.788;2022-07-24T12:48:35;98989.00;;;31.68;38.80
5595;BME280;1003;48.002;7.788;2022-07-24T12:51:09;98984.69;;;31.50;38.18
5595;BME280;1003;48.002;7.788;2022-07-24T12:53:39;98980.94;;;31.45;39.39
5595;BME280;1003;48.002;7.788;2022-07-24T12:56:11;98975.22;;;31.41;38.42
5595;BME280;1003;48.002;7.788;2022-07-24T12:59:02;98972.16;;;31.46;38.78
5595;BME280;1003;48.002;7.788;2022-07-24T13:01:48;98969.09;;;31.50;38.63
5595;BME280;1003;48.002;7.788;2022-07-24T13:04:17;98969.00;;;31.60;38.81
5595;BME280;1003;48.002;7.788;2022-07-24T13:06:49;98976.47;;;31.63;38.92
5595;BME280;1003;48.002;7.788;2022-07-24T13:09:17;98975.28;;;31.49;38.44
5595;BME280;1003;48.002;7.788;2022-07-24T13:11:47;98970.47;;;31.36;38.86
5595;BME280;1003;48.002;7.788;2022-07-24T13:14:17;98960.88;;;31.29;38.70
5595;BME280;1003;48.002;7.788;2022-07-24T13:16:49;98959.59;;;31.33;38.99
5595;BME280;1003;48.002;7.788;2022-07-24T13:19:19;98959.72;;;31.57;39.13
5595;BME280;1003;48.002;7.788;2022-07-24T13:21:47;98954.91;;;31.71;39.23
5595;BME280;1003;48.002;7.788;2022-07-24T13:24:17;98949.31;;;31.83;38.59
5595;BME280;1003;48.002;7.788;2022-07-24T13:26:44;98939.09;;;31.90;37.55
5595;BME280;1003;48.002;7.788;2022-07-24T13:29:12;98946.53;;;31.85;37.66